Time;durP1;ratioP1;P1;durP2;ratioP2;P2;SDS_P1;SDS_P2;PMS_P1;PMS_P2;Temp;Humidity;BMP_temperature;BMP_pressure;BME280_temperature;BME280_humidity;BME280_pressure;Samples;Min_cycle;Max_cycle;Signal;HPM_P1;HPM_P2
2023/05/24 00:01:06;;;;;;;18.90;14.60;;;9.90;99.90;;;8.68;100.00;98183.41;5004872;28;20515;-71
2023/05/24 00:03:33;;;;;;;18.30;13.88;;;9.90;99.90;;;8.75;100.00;98179.78;4989047;28;20119;-70
2023/05/24 00:06:01;;;;;;;19.55;13.23;;;9.90;99.90;;;8.74;100.00;98177.25;4989280;28;20136;-71
2023/05/24 00:08:28;;;;;;;23.45;15.85;;;9.90;99.90;;;8.78;100.00;98178.84;4990740;28;20041;-71
2023/05/24 00:10:55;;;;;;;19.60;13.55;;;9.90;99.90;;;8.90;100.00;98164.75;5008001;28;20054;-71
2023/05/24 00:13:22;;;;;;;19.27;14.40;;;10.00;99.90;;;8.91;100.00;98169.03;4983579;28;20052;-71
2023/05/24 00:15:49;;;;;;;18.08;13.45;;;10.00;99.90;;;8.94;100.00;98161.16;4991258;28;20042;-71
2023/05/24 00:18:17;;;;;;;21.50;14.13;;;10.00;99.90;;;8.95;100.00;98165.47;4988039;28;20157;-71
2023/05/24 00:20:44;;;;;;;20.55;14.32;;;10.00;99.90;;;8.91;100.00;98162.09;4986547;28;20058;-71
2023/05/24 00:23:12;;;;;;;24.33;14.57;;;10.00;99.90;;;8.98;100.00;98155.88;4983463;28;20046;-71
2023/05/24 00:25:39;;;;;;;17.77;13.48;;;10.00;99.90;;;8.87;100.00;98149.28;4971833;28;20050;-71
2023/05/24 00:28:06;;;;;;;24.77;14.88;;;10.10;99.90;;;8.84;100.00;98139.88;4985734;28;20054;-71
2023/05/24 00:30:34;;;;;;;20.85;13.85;;;10.10;99.90;;;8.88;100.00;98151.00;4986830;28;20078;-71
2023/05/24 00:33:01;;;;;;;20.55;13.65;;;10.00;99.90;;;8.76;100.00;98147.84;4990252;28;20144;-71
2023/05/24 00:35:28;;;;;;;19.85;13.10;;;10.00;99.90;;;8.75;100.00;98142.69;4984074;28;20086;-71
2023/05/24 00:37:56;;;;;;;23.27;13.40;;;10.00;99.90;;;8.67;100.00;98147.25;4971373;28;20080;-70
2023/05/24 00:40:23;;;;;;;20.20;13.30;;;9.90;99.90;;;8.66;100.00;98138.59;4986814;28;20054;-71
2023/05/24 00:42:50;;;;;;;23.85;12.73;;;9.90;99.90;;;8.57;100.00;98141.44;4985400;28;20130;-70
2023/05/24 00:45:17;;;;;;;17.77;12.35;;;9.90;99.90;;;8.53;100.00;98142.38;4959441;28;20113;-71
2023/05/24 00:47:46;;;;;;;22.27;13.32;;;9.80;99.90;;;8.49;100.00;98131.28;4990043;28;20137;-70
2023/05/24 00:50:15;;;;;;;22.55;12.43;;;9.80;99.90;;;8.40;100.00;98130.66;4988571;28;20049;-71
2023/05/24 00:52:43;;;;;;;22.08;12.93;;;9.70;99.90;;;8.41;100.00;98130.63;4969980;28;20060;-71
2023/05/24 00:55:11;;;;;;;16.08;12.43;;;9.70;99.90;;;8.35;100.00;98133.34;4989187;28;20054;-71
2023/05/24 00:57:39;;;;;;;16.98;12.32;;;9.60;99.90;;;8.31;100.00;98131.72;4980980;28;20137;-71
2023/05/24 01:00:08;;;;;;;18.80;11.80;;;9.60;99.90;;;8.23;100.00;98131.88;4972173;28;20046;-71
2023/05/24 01:02:36;;;;;;;19.10;11.73;;;9.60;99.90;;;8.22;100.00;98131.94;4971613;28;20153;-71
2023/05/24 01:05:05;;;;;;;21.38;11.38;;;9.50;99.90;;;8.22;100.00;98131.94;4989466;28;20503;-70
2023/05/24 01:07:51;;;;;;;18.17;11.27;;;9.50;99.90;;;8.16;100.00;98136.38;4986818;28;20134;-71
2023/05/24 01:10:45;;;;;;;19.98;12.00;;;9.40;99.90;;;8.12;100.00;98131.31;4967361;28;20279;-71
2023/05/24 01:13:35;;;;;;;16.48;10.98;;;9.40;99.90;;;8.04;100.00;98138.41;4992080;28;20137;-71
2023/05/24 01:16:16;;;;;;;17.70;12.20;;;9.30;99.90;;;8.03;100.00;98147.03;4987265;28;20054;-71
2023/05/24 01:18:52;;;;;;;17.15;11.07;;;9.30;99.90;;;7.96;100.00;98147.19;4985352;28;20049;-71
2023/05/24 01:21:48;;;;;;;18.48;10.68;;;9.20;99.90;;;7.96;100.00;98156.69;4988827;28;20053;-71
2023/05/24 01:24:47;;;;;;;17.33;11.57;;;9.20;99.90;;;7.88;100.00;98161.16;5011921;28;20045;-70
2023/05/24 01:27:17;;;;;;;15.93;10.90;;;9.10;99.90;;;7.85;100.00;98162.09;5010352;28;20050;-71
2023/05/24 01:29:44;;;;;;;18.40;12.65;;;9.10;99.90;;;7.81;100.00;98167.34;4996120;28;20046;-71
2023/05/24 01:32:11;;;;;;;25.08;12.75;;;9.10;99.90;;;7.77;100.00;98173.47;5004600;28;20593;-71
2023/05/24 01:34:38;;;;;;;17.13;11.50;;;9.10;99.90;;;7.75;100.00;98178.66;4990070;28;20578;-71
2023/05/24 01:37:05;;;;;;;16.80;10.60;;;9.00;99.90;;;7.69;100.00;98178.81;5006810;28;20590;-71
2023/05/24 01:39:33;;;;;;;20.67;12.63;;;9.00;99.90;;;7.68;100.00;98188.28;5003833;28;20097;-71
2023/05/24 01:42:21;;;;;;;22.42;12.57;;;8.90;99.90;;;7.67;100.00;98188.31;5000598;28;20478;-71
2023/05/24 01:45:06;;;;;;;18.58;11.75;;;8.90;99.90;;;7.55;100.00;98189.44;5012788;28;20101;-71
2023/05/24 01:47:59;;;;;;;19.77;11.70;;;8.90;99.90;;;7.58;100.00;98193.69;5011965;28;20169;-71
2023/05/24 01:50:59;;;;;;;17.42;10.68;;;8.90;99.90;;;7.55;100.00;98204.94;5009854;28;20049;-73
2023/05/24 01:53:33;;;;;;;18.73;11.20;;;8.80;99.90;;;7.44;100.00;98205.16;4990540;28;20213;-70
2023/05/24 01:56:05;;;;;;;22.27;11.38;;;8.70;99.90;;;7.37;100.00;98207.84;5004199;28;20577;-71
2023/05/24 01:58:35;;;;;;;21.27;10.57;;;8.70;99.90;;;7.38;100.00;98213.00;5005477;28;20110;-71
2023/05/24 02:01:02;;;;;;;20.38;11.35;;;8.70;99.90;;;7.41;100.00;98214.69;5007485;28;20135;-71
2023/05/24 02:03:30;;;;;;;16.95;10.75;;;8.60;99.90;;;7.29;100.00;98214.03;4985281;28;20108;-71
2023/05/24 02:05:57;;;;;;;19.80;10.20;;;8.60;99.90;;;7.32;100.00;98211.41;5009042;28;20811;-71
2023/05/24 02:08:24;;;;;;;20.25;10.48;;;8.50;99.90;;;7.27;100.00;98217.53;4986145;28;20147;-71
2023/05/24 02:10:51;;;;;;;19.95;8.85;;;8.50;99.90;;;7.28;100.00;98212.34;5014324;28;20049;-71
2023/05/24 02:13:18;;;;;;;21.38;9.13;;;8.50;99.90;;;7.17;100.00;98214.28;4985200;28;20053;-71
2023/05/24 02:15:46;;;;;;;20.55;9.02;;;8.40;99.90;;;7.24;100.00;98213.28;4995824;28;20102;-71
2023/05/24 02:18:13;;;;;;;15.60;7.85;;;8.40;99.90;;;7.23;100.00;98208.13;4984292;28;20133;-71
2023/05/24 02:20:42;;;;;;;14.32;8.93;;;8.40;99.90;;;7.22;100.00;98209.03;4977541;28;20082;-70
2023/05/24 02:23:09;;;;;;;14.65;7.20;;;8.50;99.90;;;7.20;100.00;98206.47;4988141;28;20125;-71
2023/05/24 02:25:36;;;;;;;17.42;8.20;;;8.50;99.90;;;7.27;100.00;98208.03;4986981;28;20046;-71
2023/05/24 02:28:03;;;;;;;17.23;6.97;;;8.40;99.90;;;7.29;100.00;98201.13;4989580;28;20085;-71
2023/05/24 02:30:30;;;;;;;19.52;8.15;;;8.50;99.90;;;7.31;100.00;98204.53;4989190;28;20508;-70
2023/05/24 02:32:59;;;;;;;16.40;7.55;;;8.50;99.90;;;7.38;100.00;98202.69;4974661;28;20058;-70
2023/05/24 02:35:26;;;;;;;17.67;6.95;;;8.50;99.90;;;7.36;100.00;98193.25;4956753;28;20056;-70
2023/05/24 02:37:53;;;;;;;14.95;6.75;;;8.60;99.90;;;7.40;100.00;98192.31;4988574;28;20499;-71
2023/05/24 02:40:21;;;;;;;21.48;8.00;;;8.60;99.90;;;7.46;100.00;98184.47;4994121;28;20054;-71
2023/05/24 02:42:48;;;;;;;20.48;7.15;;;8.60;99.90;;;7.45;100.00;98181.00;4992335;28;20157;-71
2023/05/24 02:45:15;;;;;;;14.10;6.80;;;8.60;99.90;;;7.52;100.00;98177.41;4954915;28;20050;-70
2023/05/24 02:47:42;;;;;;;22.02;6.28;;;8.70;99.90;;;7.52;100.00;98164.50;4981252;28;20054;-71
2023/05/24 02:50:09;;;;;;;16.92;6.53;;;8.60;99.90;;;7.56;100.00;98161.88;4973280;28;20204;-71
2023/05/24 02:52:38;;;;;;;15.95;6.30;;;8.70;99.90;;;7.54;100.00;98154.13;4974898;28;20085;-71
2023/05/24 02:55:06;;;;;;;18.15;6.30;;;8.70;99.90;;;7.60;100.00;98156.59;4984429;28;20054;-70
2023/05/24 02:57:33;;;;;;;14.48;5.70;;;8.70;99.90;;;7.62;100.00;98153.97;4989883;28;20058;-71
2023/05/24 03:00:00;;;;;;;14.63;5.40;;;8.80;99.90;;;7.63;100.00;98153.94;4998318;28;20050;-71
2023/05/24 03:02:32;;;;;;;14.30;5.07;;;8.80;99.90;;;7.70;100.00;98150.34;4973056;28;20129;-70
2023/05/24 03:05:00;;;;;;;13.52;5.57;;;8.70;99.90;;;7.66;100.00;98153.03;4990984;28;20121;-71
2023/05/24 03:07:27;;;;;;;15.18;5.30;;;8.70;99.90;;;7.67;100.00;98142.66;4988422;28;20046;-71
2023/05/24 03:09:54;;;;;;;13.15;5.07;;;8.80;99.90;;;7.69;100.00;98148.66;4984462;28;20576;-70
2023/05/24 03:12:23;;;;;;;15.15;5.60;;;8.80;99.90;;;7.78;100.00;98147.59;4968168;28;20156;-70
2023/05/24 03:14:50;;;;;;;20.67;5.65;;;8.80;99.90;;;7.71;100.00;98139.13;4970779;28;20055;-70
2023/05/24 03:17:17;;;;;;;11.75;4.47;;;8.90;99.90;;;7.60;100.00;98146.25;4971803;28;20129;-70
2023/05/24 03:19:44;;;;;;;17.00;5.10;;;8.80;99.90;;;7.67;100.00;98139.22;4988263;28;20130;-70
2023/05/24 03:22:11;;;;;;;16.52;5.50;;;8.80;99.90;;;7.58;100.00;98144.59;4970725;28;20144;-70
2023/05/24 03:24:40;;;;;;;13.07;5.25;;;8.80;99.90;;;7.53;100.00;98155.88;4990188;28;20487;-70
2023/05/24 03:27:07;;;;;;;18.13;5.40;;;8.70;99.90;;;7.59;100.00;98148.88;4987565;28;20055;-70
2023/05/24 03:29:34;;;;;;;12.75;4.68;;;8.70;99.90;;;7.59;100.00;98147.13;4985896;28;20052;-71
2023/05/24 03:32:01;;;;;;;12.65;5.15;;;8.70;99.90;;;7.58;100.00;98155.78;4987545;28;20602;-71
2023/05/24 03:34:30;;;;;;;12.13;4.70;;;8.70;99.90;;;7.55;100.00;98155.84;4984737;28;20054;-71
2023/05/24 03:36:57;;;;;;;12.40;5.00;;;8.70;99.90;;;7.53;100.00;98158.47;4954403;28;20153;-70
2023/05/24 03:39:24;;;;;;;12.75;5.03;;;8.70;99.90;;;7.50;100.00;98158.53;4985824;28;20463;-71
2023/05/24 03:41:51;;;;;;;16.23;5.72;;;8.70;99.90;;;7.52;100.00;98159.31;4984291;28;20436;-71
2023/05/24 03:44:18;;;;;;;13.45;4.78;;;8.70;99.90;;;7.48;100.00;98160.31;4984391;28;20149;-70
2023/05/24 03:46:45;;;;;;;14.57;5.32;;;8.70;99.90;;;7.51;100.00;98161.97;4964792;28;20137;-70
2023/05/24 03:49:12;;;;;;;13.93;4.85;;;8.70;99.90;;;7.52;100.00;98161.91;4986635;28;20138;-70
2023/05/24 03:51:39;;;;;;;14.27;4.90;;;8.70;99.90;;;7.47;100.00;98168.06;4988743;28;20165;-70
2023/05/24 03:54:06;;;;;;;11.07;4.47;;;8.60;99.90;;;7.50;100.00;98173.16;4989521;28;20129;-71
2023/05/24 03:56:33;;;;;;;16.48;4.60;;;8.70;99.90;;;7.45;100.00;98168.09;4989521;28;20523;-70
2023/05/24 03:59:02;;;;;;;10.90;4.50;;;8.60;99.90;;;7.47;100.00;98168.06;4976470;28;20304;-70
2023/05/24 04:01:30;;;;;;;19.65;4.68;;;8.70;99.90;;;7.53;100.00;98162.78;4987647;28;20073;-71
2023/05/24 04:04:04;;;;;;;13.40;4.38;;;8.70;99.90;;;7.60;100.00;98169.53;4994303;28;20046;-70
2023/05/24 04:06:31;;;;;;;12.98;4.97;;;8.70;99.90;;;7.58;100.00;98170.44;4989953;28;20048;-71
2023/05/24 04:08:59;;;;;;;10.45;3.88;;;8.70;99.90;;;7.61;100.00;98166.03;4988151;28;20574;-70
2023/05/24 04:11:27;;;;;;;11.80;4.80;;;8.70;99.90;;;7.73;100.00;98167.50;4968446;28;20054;-70
2023/05/24 04:13:55;;;;;;;16.40;4.53;;;8.80;99.90;;;7.56;100.00;98172.19;4991621;28;20538;-70
2023/05/24 04:16:24;;;;;;;13.25;4.50;;;8.80;99.90;;;7.58;100.00;98170.44;4994030;28;20104;-71
2023/05/24 04:18:56;;;;;;;11.20;4.25;;;8.80;99.90;;;7.71;100.00;98174.47;5010400;28;20137;-71
2023/05/24 04:21:23;;;;;;;14.07;4.70;;;8.80;99.90;;;7.70;100.00;98173.59;5006754;28;20045;-71
2023/05/24 04:23:50;;;;;;;11.70;4.18;;;8.80;99.90;;;7.64;100.00;98162.53;5007608;28;20414;-70
2023/05/24 04:26:17;;;;;;;13.32;4.03;;;8.80;99.90;;;7.67;100.00;98160.75;5002336;28;20943;-71
2023/05/24 04:28:45;;;;;;;18.88;5.30;;;8.80;99.90;;;7.73;100.00;98160.63;5003581;28;20145;-71
2023/05/24 04:31:14;;;;;;;15.57;4.97;;;8.90;99.90;;;7.78;100.00;98159.66;4999719;28;20066;-70
2023/05/24 04:33:41;;;;;;;15.90;3.80;;;8.90;99.90;;;7.77;100.00;98152.78;5003999;28;20506;-71
2023/05/24 04:36:10;;;;;;;16.67;4.22;;;8.90;99.90;;;7.72;100.00;98152.91;5003850;28;20053;-71
2023/05/24 04:38:39;;;;;;;14.55;4.28;;;8.90;99.90;;;7.72;100.00;98151.16;4989724;28;20046;-70
2023/05/24 04:41:06;;;;;;;10.50;3.30;;;8.90;99.90;;;7.79;100.00;98149.28;5006763;28;20042;-70
2023/05/24 04:43:33;;;;;;;15.75;4.40;;;8.90;99.90;;;7.74;100.00;98151.97;5011823;28;20639;-70
2023/05/24 04:46:01;;;;;;;14.70;4.38;;;8.90;99.90;;;7.72;100.00;98148.56;5003928;28;20050;-71
2023/05/24 04:48:28;;;;;;;17.70;4.60;;;8.90;99.90;;;7.68;100.00;98157.28;5004202;28;20050;-70
2023/05/24 04:50:57;;;;;;;14.98;3.65;;;8.90;99.90;;;7.77;100.00;98145.03;5005907;28;20525;-71
2023/05/24 04:53:24;;;;;;;10.68;3.63;;;8.80;99.90;;;7.72;100.00;98145.16;5009707;28;20064;-71
2023/05/24 04:55:52;;;;;;;11.07;3.50;;;8.90;99.90;;;7.78;100.00;98150.19;5010644;28;20473;-70
2023/05/24 04:58:19;;;;;;;14.95;4.50;;;8.90;99.90;;;7.78;100.00;98155.34;5011417;28;20097;-70
2023/05/24 05:00:46;;;;;;;15.15;4.22;;;8.90;99.90;;;7.82;100.00;98162.13;4989449;28;20105;-70
2023/05/24 05:03:13;;;;;;;15.73;4.05;;;8.90;99.90;;;7.83;100.00;98160.41;4991564;28;20057;-70
2023/05/24 05:05:41;;;;;;;16.30;3.72;;;8.90;99.90;;;7.76;100.00;98159.69;5009092;28;20046;-71
2023/05/24 05:08:08;;;;;;;17.90;3.85;;;8.90;99.90;;;7.80;100.00;98157.88;5008287;28;20153;-70
2023/05/24 05:10:35;;;;;;;12.75;3.58;;;8.90;99.90;;;7.75;100.00;98163.16;5005067;28;20142;-71
2023/05/24 05:13:03;;;;;;;16.25;4.47;;;9.00;99.90;;;7.79;100.00;98156.19;4983823;28;20073;-70
2023/05/24 05:15:31;;;;;;;14.20;3.97;;;8.90;99.90;;;7.73;100.00;98162.34;4996133;28;20050;-70
2023/05/24 05:17:59;;;;;;;12.25;3.70;;;8.90;99.90;;;7.80;100.00;98151.00;4987159;28;20061;-70
2023/05/24 05:20:26;;;;;;;15.02;3.88;;;8.90;99.90;;;7.89;100.00;98160.25;4986410;28;20411;-70
2023/05/24 05:22:53;;;;;;;11.88;3.17;;;8.90;99.90;;;7.75;100.00;98158.84;4982206;28;20071;-70
2023/05/24 05:25:20;;;;;;;16.48;3.47;;;8.90;99.90;;;7.87;100.00;98154.31;4970509;28;20137;-70
2023/05/24 05:27:50;;;;;;;11.93;3.45;;;8.90;99.90;;;7.69;100.00;98156.41;4979085;28;20101;-70
2023/05/24 05:30:18;;;;;;;16.05;3.83;;;8.90;99.90;;;7.88;100.00;98158.56;4994066;28;20746;-70
2023/05/24 05:32:45;;;;;;;13.05;3.85;;;8.90;99.90;;;8.04;100.00;98154.75;4991266;28;20113;-70
2023/05/24 05:35:12;;;;;;;13.88;4.07;;;9.00;99.90;;;8.07;100.00;98143.47;4973525;28;20050;-71
2023/05/24 05:37:39;;;;;;;13.88;3.75;;;9.10;99.90;;;8.31;100.00;98139.47;4991374;28;20074;-70
2023/05/24 05:40:07;;;;;;;15.15;3.70;;;9.20;99.90;;;8.32;100.00;98143.75;4978489;28;20077;-70
2023/05/24 05:42:33;;;;;;;11.23;2.92;;;9.30;99.90;;;8.48;100.00;98136.50;4970438;28;20081;-70
2023/05/24 05:45:04;;;;;;;15.38;3.55;;;9.40;99.90;;;8.57;100.00;98142.28;4991904;28;20054;-70
2023/05/24 05:47:31;;;;;;;15.23;3.20;;;9.50;99.90;;;8.50;100.00;98129.53;4975365;28;20050;-70
2023/05/24 05:49:58;;;;;;;16.23;3.88;;;9.40;99.90;;;8.46;100.00;98125.31;4973968;28;20083;-71
2023/05/24 05:52:25;;;;;;;14.70;3.47;;;9.40;99.90;;;8.41;100.00;98125.44;4991459;28;20061;-70
2023/05/24 05:54:53;;;;;;;10.80;3.47;;;9.50;99.90;;;8.57;100.00;98131.91;4998376;28;20047;-70
2023/05/24 05:57:22;;;;;;;13.35;3.33;;;9.60;99.90;;;8.50;100.00;98132.13;4988533;28;20152;-70
2023/05/24 05:59:50;;;;;;;13.95;3.03;;;9.70;99.90;;;8.66;100.00;98127.41;4972356;28;20042;-70
2023/05/24 06:02:17;;;;;;;16.58;3.25;;;9.60;99.90;;;8.74;100.00;98128.91;4989548;28;20708;-71
2023/05/24 06:04:46;;;;;;;12.90;3.15;;;9.60;99.90;;;8.76;100.00;98129.72;4979159;28;20078;-71
2023/05/24 06:07:13;;;;;;;17.73;3.50;;;9.80;99.90;;;8.79;100.00;98126.19;4973936;28;20391;-71
2023/05/24 06:09:40;;;;;;;17.63;3.10;;;9.90;99.90;;;9.06;100.00;98122.03;4984270;28;20082;-71
2023/05/24 06:12:07;;;;;;;12.23;3.10;;;10.00;99.90;;;9.13;100.00;98133.91;4988406;28;20042;-70
2023/05/24 06:14:37;;;;;;;12.95;3.53;;;10.00;99.90;;;9.18;100.00;98118.22;4988779;28;20070;-70
2023/05/24 06:17:05;;;;;;;16.38;3.78;;;10.20;99.90;;;9.09;100.00;98124.50;5010019;28;20066;-71
2023/05/24 06:19:32;;;;;;;19.55;3.88;;;10.20;99.90;;;9.24;100.00;98124.97;4991315;28;20074;-70
2023/05/24 06:22:00;;;;;;;16.50;3.33;;;10.10;99.90;;;9.47;100.00;98122.56;4987680;28;20142;-70
2023/05/24 06:24:27;;;;;;;12.88;3.28;;;10.30;99.90;;;9.39;100.00;98120.19;4985979;28;20046;-70
2023/05/24 06:26:54;;;;;;;21.20;4.18;;;10.20;99.90;;;9.36;100.00;98115.09;4998544;28;20062;-70
2023/05/24 06:29:22;;;;;;;13.68;2.45;;;10.30;99.90;;;9.46;100.00;98115.69;4999050;28;20053;-71
2023/05/24 06:31:49;;;;;;;11.93;2.78;;;10.40;99.90;;;9.28;100.00;98114.47;5011615;28;20522;-71
2023/05/24 06:34:21;;;;;;;13.30;3.42;;;10.40;99.90;;;9.43;100.00;98119.22;5005260;28;20113;-70
2023/05/24 06:36:49;;;;;;;16.90;3.65;;;10.40;99.90;;;9.60;100.00;98116.13;4993067;28;20145;-70
2023/05/24 06:39:17;;;;;;;14.70;3.38;;;10.50;99.90;;;9.54;100.00;98123.25;5011667;28;20053;-71
2023/05/24 06:41:45;;;;;;;17.83;3.53;;;10.60;99.90;;;9.68;100.00;98115.06;5016748;28;20060;-70
2023/05/24 06:44:13;;;;;;;13.85;3.20;;;10.70;99.90;;;9.75;100.00;98114.81;4981253;28;20054;-71
2023/05/24 06:46:41;;;;;;;13.70;2.88;;;10.70;99.90;;;9.80;100.00;98117.25;5005464;28;20136;-71
2023/05/24 06:49:08;;;;;;;13.07;3.03;;;10.60;99.90;;;9.63;100.00;98120.38;4979298;28;20470;-71
2023/05/24 06:51:36;;;;;;;13.98;3.35;;;10.80;99.90;;;9.93;100.00;98109.97;5006100;28;20054;-70
2023/05/24 06:54:04;;;;;;;15.70;3.85;;;10.80;99.90;;;9.74;100.00;98114.84;5012925;28;20955;-70
2023/05/24 06:56:31;;;;;;;14.18;3.50;;;10.80;99.90;;;9.91;100.00;98112.59;5009476;28;20058;-70
2023/05/24 06:58:59;;;;;;;18.52;3.67;;;10.90;99.90;;;10.15;100.00;98121.34;4985930;28;20054;-70
2023/05/24 07:01:26;;;;;;;13.02;3.42;;;10.90;99.90;;;10.11;100.00;98119.75;5009490;28;20344;-71
2023/05/24 07:03:54;;;;;;;11.82;2.90;;;11.10;99.90;;;10.06;100.00;98119.06;5006342;28;20494;-71
2023/05/24 07:06:21;;;;;;;17.90;3.38;;;11.20;99.90;;;10.18;100.00;98123.84;5013054;28;20128;-70
2023/05/24 07:08:48;;;;;;;13.68;2.95;;;11.10;99.90;;;10.49;100.00;98127.19;4993364;28;20152;-71
2023/05/24 07:11:15;;;;;;;13.50;3.03;;;11.30;99.90;;;10.60;100.00;98123.34;5006653;28;20057;-71
2023/05/24 07:13:42;;;;;;;12.10;2.78;;;11.50;99.90;;;10.37;100.00;98133.66;4992788;28;20046;-71
2023/05/24 07:16:10;;;;;;;13.43;3.47;;;11.50;99.90;;;10.38;100.00;98135.38;5010114;28;20058;-71
2023/05/24 07:18:40;;;;;;;14.55;3.25;;;11.50;99.90;;;10.67;100.00;98130.03;5003819;28;20073;-71
2023/05/24 07:21:07;;;;;;;13.35;2.83;;;11.70;99.90;;;10.73;100.00;98135.91;5003825;28;20137;-71
2023/05/24 07:23:35;;;;;;;13.50;2.78;;;11.80;99.90;;;10.55;100.00;98139.97;5006466;28;20108;-71
2023/05/24 07:26:04;;;;;;;14.85;3.08;;;11.90;99.90;;;10.57;100.00;98135.59;5006921;28;20053;-71
2023/05/24 07:28:31;;;;;;;15.82;2.88;;;11.80;99.90;;;10.34;100.00;98131.16;5009647;28;20078;-71
2023/05/24 07:30:58;;;;;;;10.15;2.78;;;11.70;99.90;;;10.42;100.00;98142.13;5005245;28;20050;-70
2023/05/24 07:33:25;;;;;;;15.95;3.17;;;11.60;99.90;;;10.64;100.00;98140.50;4989006;28;20124;-71
2023/05/24 07:35:53;;;;;;;12.68;2.55;;;11.70;99.90;;;10.58;100.00;98142.47;4994989;28;20052;-70
2023/05/24 07:38:20;;;;;;;13.27;2.92;;;11.70;99.90;;;10.70;100.00;98147.25;5003653;28;20060;-71
2023/05/24 07:40:47;;;;;;;16.77;3.28;;;11.70;99.90;;;10.76;100.00;98138.41;4985165;28;20050;-71
2023/05/24 07:43:15;;;;;;;15.48;3.00;;;11.70;99.90;;;10.47;100.00;98148.03;4992438;28;20155;-71
2023/05/24 07:45:42;;;;;;;12.13;3.08;;;11.80;99.90;;;10.64;100.00;98148.31;5010015;28;20050;-71
2023/05/24 07:48:09;;;;;;;16.48;2.80;;;11.90;99.90;;;11.02;100.00;98140.94;4981742;28;20091;-71
2023/05/24 07:50:37;;;;;;;13.15;2.65;;;11.90;99.90;;;11.12;100.00;98146.66;5004390;28;20050;-71
2023/05/24 07:53:05;;;;;;;11.63;2.83;;;12.00;99.90;;;11.18;100.00;98145.59;5006588;28;20124;-71
2023/05/24 07:55:32;;;;;;;15.75;3.00;;;12.10;99.90;;;10.91;100.00;98135.28;5007949;28;20555;-71
2023/05/24 07:57:59;;;;;;;22.52;3.38;;;12.10;99.90;;;11.05;100.00;98135.63;4989399;28;20061;-70
2023/05/24 08:00:26;;;;;;;16.27;2.53;;;12.00;99.90;;;11.27;100.00;98132.28;5007280;28;20203;-71
2023/05/24 08:02:53;;;;;;;9.50;2.38;;;12.20;99.90;;;11.54;100.00;98130.41;5007314;28;20188;-71
2023/05/24 08:05:21;;;;;;;13.60;2.75;;;12.40;99.90;;;11.43;100.00;98128.22;4992368;28;20125;-71
2023/05/24 08:07:48;;;;;;;10.93;2.42;;;12.50;99.90;;;11.12;100.00;98131.06;5005102;28;20041;-71
2023/05/24 08:10:17;;;;;;;8.15;2.13;;;12.40;99.90;;;11.03;100.00;98134.84;4991299;28;20481;-71
2023/05/24 08:12:44;;;;;;;13.45;2.33;;;12.30;99.90;;;10.92;100.00;98131.78;4983601;28;20098;-71
2023/05/24 08:15:11;;;;;;;10.93;2.15;;;12.40;99.90;;;11.29;100.00;98133.06;4967687;28;20081;-71
2023/05/24 08:17:38;;;;;;;11.23;2.28;;;12.40;99.90;;;11.22;100.00;98124.66;4997639;28;20050;-71
2023/05/24 08:20:08;;;;;;;13.73;2.65;;;12.40;99.90;;;11.51;100.00;98125.31;4997757;28;20099;-71
2023/05/24 08:22:36;;;;;;;15.48;2.95;;;12.40;99.90;;;11.78;100.00;98112.16;4992187;28;20478;-71
2023/05/24 08:25:05;;;;;;;14.13;2.45;;;12.50;99.90;;;11.86;100.00;98120.50;4997911;28;20053;-70
2023/05/24 08:27:32;;;;;;;11.27;2.50;;;12.60;99.90;;;11.86;100.00;98120.50;4996997;28;20072;-71
2023/05/24 08:30:00;;;;;;;10.40;1.70;;;12.80;99.90;;;12.27;100.00;98125.84;4997986;28;20507;-71
2023/05/24 08:32:27;;;;;;;13.50;2.20;;;12.90;99.90;;;12.59;100.00;98113.25;4997730;28;20766;-71
2023/05/24 08:34:55;;;;;;;9.23;2.20;;;13.00;99.90;;;12.74;100.00;98113.44;4999677;28;20056;-71
2023/05/24 08:37:42;;;;;;;9.57;2.45;;;13.00;99.90;;;13.04;100.00;98106.97;5000511;28;20049;-71
2023/05/24 08:40:09;;;;;;;12.02;2.20;;;13.10;99.90;;;13.11;100.00;98108.41;4994607;28;20042;-71
2023/05/24 08:42:38;;;;;;;11.68;2.65;;;13.50;99.90;;;13.34;100.00;98113.47;4981327;28;20054;-71
2023/05/24 08:45:12;;;;;;;11.55;2.35;;;13.70;99.90;;;13.74;100.00;98113.41;4999482;28;20057;-71
2023/05/24 08:47:40;;;;;;;11.95;2.33;;;13.90;99.90;;;14.15;100.00;98107.97;4996802;28;20545;-71
2023/05/24 08:50:08;;;;;;;9.52;2.03;;;14.40;99.90;;;13.98;100.00;98108.78;4980914;28;20054;-71
2023/05/24 08:52:35;;;;;;;9.07;1.70;;;14.90;99.90;;;14.51;100.00;98107.94;4979676;28;20112;-71
2023/05/24 08:55:04;;;;;;;11.00;2.17;;;15.30;99.90;;;14.70;100.00;98102.66;4997034;28;20053;-71
2023/05/24 08:57:33;;;;;;;9.98;2.20;;;15.90;99.90;;;15.42;100.00;98106.72;4996145;28;20050;-71
2023/05/24 09:00:00;;;;;;;9.60;2.10;;;16.50;99.90;;;15.12;100.00;98103.13;4996631;28;20110;-72
2023/05/24 09:02:30;;;;;;;6.10;1.23;;;16.80;99.00;;;15.51;100.00;98105.41;4966928;28;20629;-72
2023/05/24 09:04:59;;;;;;;5.22;1.48;;;17.20;98.30;;;15.42;100.00;98114.56;4998129;28;20448;-72
2023/05/24 09:07:27;;;;;;;8.95;2.00;;;17.40;96.90;;;15.66;100.00;98119.41;4999356;28;20042;-72
2023/05/24 09:10:01;;;;;;;5.75;1.40;;;17.80;97.60;;;15.72;100.00;98115.66;4976975;28;20073;-72
2023/05/24 09:12:31;;;;;;;8.20;1.55;;;18.30;95.40;;;15.36;100.00;98114.91;4996744;28;20082;-72
2023/05/24 09:15:07;;;;;;;4.50;1.27;;;18.30;92.80;;;14.90;100.00;98117.31;4984062;28;20172;-72
2023/05/24 09:17:36;;;;;;;8.32;1.85;;;18.10;92.50;;;15.23;100.00;98117.31;4997072;28;20498;-72
2023/05/24 09:20:08;;;;;;;6.82;1.48;;;17.90;92.70;;;14.54;100.00;98114.75;4979433;28;20050;-72
2023/05/24 09:22:37;;;;;;;6.47;1.55;;;17.60;90.30;;;14.98;100.00;98104.66;4995875;28;20077;-72
2023/05/24 09:25:10;;;;;;;7.28;1.85;;;17.60;90.90;;;16.04;100.00;98100.75;4981523;28;20051;-72
2023/05/24 09:27:38;;;;;;;9.35;1.80;;;17.80;92.40;;;16.14;100.00;98106.31;4995468;28;20046;-72
2023/05/24 09:30:11;;;;;;;7.97;2.13;;;18.10;93.10;;;16.76;100.00;98100.97;4998992;28;20077;-72
2023/05/24 09:32:39;;;;;;;7.25;1.60;;;18.30;93.50;;;17.00;100.00;98098.72;4997100;28;20052;-72
2023/05/24 09:35:09;;;;;;;7.80;1.85;;;19.00;92.50;;;16.40;100.00;98100.44;4963536;28;20155;-71
2023/05/24 09:37:40;;;;;;;5.07;1.52;;;19.00;89.30;;;16.14;99.49;98099.28;4997574;28;20054;-70
2023/05/24 09:40:18;;;;;;;6.85;1.20;;;19.00;87.50;;;15.77;99.33;98090.06;4999071;28;20061;-70
2023/05/24 09:42:50;;;;;;;9.50;1.38;;;18.80;87.20;;;16.50;100.00;98092.88;5000262;28;20057;-71
2023/05/24 09:45:17;;;;;;;10.60;1.23;;;18.50;89.50;;;16.64;100.00;98089.44;5000479;28;20052;-71
2023/05/24 09:47:44;;;;;;;12.73;1.42;;;18.50;89.60;;;16.72;100.00;98089.84;4998170;28;20307;-70
2023/05/24 09:50:15;;;;;;;6.00;1.27;;;18.80;88.70;;;17.07;95.97;98086.91;4985502;28;20138;-71
2023/05/24 09:52:42;;;;;;;4.63;1.38;;;19.10;85.80;;;16.88;95.04;98092.44;5001047;28;20506;-71
2023/05/24 09:55:15;;;;;;;8.48;1.33;;;19.10;86.10;;;17.01;96.54;98082.88;4985099;28;20050;-71
2023/05/24 09:57:44;;;;;;;7.63;1.35;;;18.70;86.30;;;16.97;100.00;98086.63;4984038;28;20053;-71
2023/05/24 10:00:20;;;;;;;7.40;1.48;;;18.70;88.50;;;17.38;100.00;98077.13;5000226;28;20053;-71
2023/05/24 10:03:04;;;;;;;5.93;1.35;;;18.90;89.20;;;17.96;100.00;98081.38;4999591;28;20061;-70
2023/05/24 10:05:31;;;;;;;7.10;1.48;;;19.40;89.50;;;17.24;97.32;98076.25;5000045;28;20045;-71
2023/05/24 10:07:59;;;;;;;8.60;1.60;;;19.60;86.90;;;17.42;100.00;98073.38;5001721;28;20140;-72
2023/05/24 10:10:31;;;;;;;10.68;1.50;;;18.90;88.50;;;18.39;98.29;98076.75;5001355;28;20050;-71
2023/05/24 10:13:00;;;;;;;10.35;1.50;;;19.20;88.30;;;18.44;94.67;98068.56;4982097;28;20058;-71
2023/05/24 10:15:28;;;;;;;5.97;1.00;;;19.60;87.10;;;18.98;88.04;98071.06;4984577;28;20433;-71
2023/05/24 10:17:57;;;;;;;7.10;1.30;;;20.10;84.10;;;18.34;84.03;98067.50;4994593;28;21345;-71
2023/05/24 10:20:24;;;;;;;7.97;1.58;;;20.10;82.60;;;18.29;83.29;98064.31;4994773;28;20101;-71